createdAt,value
2019-02-06T00:00:37.035Z,34.10
2019-02-06T00:05:38.716Z,37.07
2019-02-06T00:10:59.951Z,32.43
2019-02-06T00:16:02.000Z,36.83
2019-02-06T00:21:03.345Z,39.10
2019-02-06T00:26:04.625Z,33.93
2019-02-06T00:31:06.309Z,38.25
2019-02-06T00:36:07.692Z,33.43
2019-02-06T00:41:08.968Z,30.97
2019-02-06T00:46:10.630Z,32.13
2019-02-06T00:51:12.278Z,33.17
2019-02-06T00:56:13.554Z,33.53
2019-02-06T01:01:14.829Z,36.48
2019-02-06T01:06:16.392Z,32.27
2019-02-06T01:11:18.265Z,33.00
2019-02-06T01:16:19.574Z,30.53
2019-02-06T01:21:20.952Z,31.57
2019-02-06T01:26:22.728Z,28.20
2019-02-06T01:31:25.105Z,34.33
2019-02-06T01:36:26.692Z,29.57
2019-02-06T01:41:27.973Z,29.20
2019-02-06T01:46:29.356Z,35.37
2019-02-06T01:51:30.645Z,33.13
2019-02-06T01:56:31.928Z,27.60
2019-02-06T02:01:33.196Z,33.57
2019-02-06T02:06:34.881Z,30.13
2019-02-06T02:11:36.152Z,31.00
2019-02-06T02:16:37.611Z,31.00
2019-02-06T02:21:39.477Z,33.55
2019-02-06T02:26:40.766Z,32.70
2019-02-06T02:31:42.358Z,34.33
2019-02-06T02:36:43.663Z,42.07
2019-02-06T02:41:45.235Z,38.33
2019-02-06T02:46:46.508Z,33.23
2019-02-06T02:51:48.149Z,45.08
2019-02-06T02:56:49.440Z,32.07
2019-02-06T03:01:59.181Z,35.20
2019-02-06T03:07:00.468Z,31.50
2019-02-06T03:12:01.780Z,35.73
2019-02-06T03:17:03.481Z,41.23
2019-02-06T03:22:04.934Z,37.97
2019-02-06T03:27:06.608Z,32.80
2019-02-06T03:32:08.226Z,42.37
2019-02-06T03:37:09.500Z,33.00
2019-02-06T03:42:11.102Z,33.50
2019-02-06T03:47:12.379Z,39.33
2019-02-06T03:52:13.654Z,32.17
2019-02-06T03:57:15.247Z,37.47
2019-02-06T04:02:16.504Z,38.07
2019-02-06T04:07:17.786Z,33.60
2019-02-06T04:12:19.073Z,36.93
2019-02-06T04:17:20.369Z,33.20
2019-02-06T04:22:21.941Z,31.53
2019-02-06T04:27:23.218Z,31.37
2019-02-06T04:32:24.506Z,28.23
2019-02-06T04:37:25.789Z,32.70
2019-02-06T04:42:27.443Z,30.47
2019-02-06T04:47:28.718Z,28.60
2019-02-06T04:52:29.981Z,30.83
2019-02-06T04:57:31.265Z,31.63
2019-02-06T05:02:32.536Z,28.90
2019-02-06T05:07:33.988Z,34.40
2019-02-06T05:12:35.296Z,31.63
2019-02-06T05:17:37.261Z,28.27
2019-02-06T05:22:38.520Z,34.87
2019-02-06T05:27:39.814Z,32.03
2019-02-06T05:32:42.995Z,33.78
2019-02-06T05:37:44.445Z,31.33
2019-02-06T05:42:45.715Z,28.23
2019-02-06T05:47:46.981Z,30.27
2019-02-06T05:52:48.666Z,32.57
2019-02-06T05:57:50.205Z,40.93
2019-02-06T06:02:51.956Z,33.87
2019-02-06T06:07:53.344Z,36.67
2019-02-06T06:12:54.698Z,53.80
2019-02-06T06:17:56.333Z,44.13
2019-02-06T06:22:57.673Z,36.10
2019-02-06T06:27:59.406Z,31.93
2019-02-06T06:33:00.646Z,34.90
2019-02-06T06:38:02.610Z,37.77
2019-02-06T06:43:04.581Z,42.83
2019-02-06T06:48:05.872Z,51.87
2019-02-06T06:53:07.185Z,43.27
2019-02-06T06:58:08.464Z,39.60
2019-02-06T07:03:09.737Z,41.33
2019-02-06T07:08:13.399Z,48.43
2019-02-06T07:13:14.099Z,41.42
2019-02-06T07:18:15.414Z,41.60
2019-02-06T07:23:17.389Z,38.60
2019-02-06T07:28:18.659Z,39.63
2019-02-06T07:33:20.245Z,52.00
2019-02-06T07:38:24.285Z,39.87
2019-02-06T07:43:24.597Z,44.85
2019-02-06T07:48:25.905Z,43.43
2019-02-06T07:53:27.203Z,44.37
2019-02-06T07:58:28.867Z,33.07
2019-02-06T08:03:30.521Z,33.60
2019-02-06T08:08:36.035Z,42.93
2019-02-06T08:13:35.066Z,44.45
2019-02-06T08:18:36.359Z,41.43
2019-02-06T08:23:37.674Z,44.53
2019-02-06T08:28:39.378Z,34.30
2019-02-06T08:33:40.710Z,29.67
2019-02-06T08:38:48.133Z,38.78
2019-02-06T08:43:45.465Z,39.03
2019-02-06T08:48:46.748Z,34.63
2019-02-06T08:53:48.045Z,28.77
2019-02-06T08:58:49.525Z,24.77
2019-02-06T09:03:50.820Z,27.17
2019-02-06T09:08:59.238Z,23.63
2019-02-06T09:13:55.178Z,25.27
2019-02-06T09:18:56.845Z,42.13
2019-02-06T09:23:58.120Z,35.07
2019-02-06T09:28:59.401Z,36.80
2019-02-06T09:34:00.696Z,34.93
2019-02-06T09:39:11.640Z,34.97
2019-02-06T09:44:08.348Z,35.60
2019-02-06T09:49:09.640Z,42.07
2019-02-06T09:54:11.231Z,38.10
2019-02-06T09:59:12.514Z,43.10
2019-02-06T10:04:13.812Z,42.23
2019-02-06T10:09:22.657Z,41.87
2019-02-06T10:14:18.169Z,45.23
2019-02-06T10:19:19.445Z,45.87
2019-02-06T10:24:20.713Z,42.60
2019-02-06T10:29:21.997Z,41.60
2019-02-06T10:34:23.591Z,43.43
2019-02-06T10:39:34.154Z,41.03
2019-02-06T10:44:28.337Z,43.63
2019-02-06T10:49:29.664Z,41.63
2019-02-06T10:54:30.901Z,41.50
2019-02-06T10:59:32.188Z,38.27
2019-02-06T11:04:33.481Z,38.70
2019-02-06T11:09:45.721Z,39.33
2019-02-06T11:14:38.141Z,36.53
2019-02-06T11:19:39.749Z,37.43
2019-02-06T11:24:41.040Z,40.50
2019-02-06T11:29:42.320Z,40.13
2019-02-06T11:34:43.601Z,40.03
2019-02-06T11:39:44.898Z,42.90
2019-02-06T11:44:46.163Z,44.07
2019-02-06T11:49:49.345Z,47.37
2019-02-06T11:54:50.631Z,44.53
2019-02-06T11:59:53.141Z,46.73
2019-02-06T12:04:54.537Z,47.77
2019-02-06T12:09:56.013Z,43.80
2019-02-06T12:14:59.134Z,44.53
2019-02-06T12:20:00.733Z,47.93
2019-02-06T12:25:02.314Z,47.47
2019-02-06T12:30:07.403Z,42.13
2019-02-06T12:35:08.922Z,45.77
2019-02-06T12:40:21.149Z,41.73
2019-02-06T12:45:19.521Z,38.87
2019-02-06T12:50:21.820Z,34.60
2019-02-06T12:55:26.428Z,35.60
2019-02-06T13:00:29.844Z,31.30
2019-02-06T13:05:31.117Z,30.50
2019-02-06T13:10:34.237Z,31.17
2019-02-06T13:15:35.468Z,29.20
2019-02-06T13:20:36.752Z,31.87
2019-02-06T13:25:38.033Z,31.43
2019-02-06T13:30:39.676Z,29.57
2019-02-06T13:35:40.952Z,32.50
2019-02-06T13:40:45.628Z,32.03
2019-02-06T13:45:47.323Z,31.50
2019-02-06T13:50:48.603Z,32.20
2019-02-06T13:55:50.191Z,36.60
2019-02-06T14:00:52.515Z,33.37
2019-02-06T14:05:53.972Z,33.20
2019-02-06T14:11:00.562Z,35.30
2019-02-06T14:15:58.752Z,35.33
2019-02-06T14:21:00.030Z,35.20
2019-02-06T14:26:07.862Z,35.67
2019-02-06T14:31:25.082Z,35.20
2019-02-06T14:36:47.150Z,38.03
2019-02-06T14:42:22.469Z,36.50
2019-02-06T14:47:35.533Z,37.37
2019-02-06T14:52:40.628Z,39.40
2019-02-06T14:58:05.917Z,39.27
2019-02-06T15:03:13.894Z,42.80
2019-02-06T15:08:27.844Z,42.43
2019-02-06T15:13:53.692Z,43.00
2019-02-06T15:19:13.833Z,38.97
2019-02-06T15:24:35.981Z,44.93
2019-02-06T15:29:46.870Z,45.03
2019-02-06T15:35:01.514Z,42.60
2019-02-06T15:40:15.605Z,46.50
2019-02-06T15:45:29.716Z,47.47
2019-02-06T15:50:51.579Z,47.50
2019-02-06T15:55:56.667Z,45.50
2019-02-06T16:01:14.230Z,48.37
2019-02-06T16:06:25.923Z,51.20
2019-02-06T16:11:41.687Z,48.63
2019-02-06T16:16:39.618Z,50.80
2019-02-06T16:21:53.163Z,53.83
2019-02-06T16:27:12.359Z,103.70
2019-02-06T16:32:37.325Z,67.23
2019-02-06T16:37:42.750Z,78.10
2019-02-06T16:42:50.847Z,58.77
2019-02-06T16:47:58.888Z,48.83
2019-02-06T16:53:07.101Z,65.47
2019-02-06T16:58:27.604Z,55.30
2019-02-06T17:03:41.538Z,66.03
2019-02-06T17:09:14.325Z,61.17
2019-02-06T17:14:42.638Z,77.40
2019-02-06T17:19:50.553Z,59.40
2019-02-06T17:25:04.839Z,55.53
2019-02-06T17:30:15.738Z,84.97
2019-02-06T17:35:21.282Z,62.40
2019-02-06T17:40:32.388Z,48.47
2019-02-06T17:45:46.172Z,46.57
2019-02-06T17:51:06.216Z,56.75
2019-02-06T17:56:07.501Z,58.17
2019-02-06T18:01:13.094Z,70.07
2019-02-06T18:06:15.401Z,54.93
2019-02-06T18:11:16.680Z,51.93
2019-02-06T18:16:21.502Z,65.47
2019-02-06T18:21:21.417Z,54.47
2019-02-06T18:26:22.685Z,49.97
2019-02-06T18:31:24.265Z,47.60
2019-02-06T18:36:25.548Z,45.77
2019-02-06T18:41:26.829Z,62.20
2019-02-06T18:46:28.505Z,52.83
2019-02-06T18:51:29.791Z,65.03
2019-02-06T18:56:31.072Z,55.30
2019-02-06T19:01:32.387Z,81.53
2019-02-06T19:06:34.076Z,52.20
2019-02-06T19:11:35.917Z,51.03
2019-02-06T19:16:37.161Z,45.70
2019-02-06T19:21:38.761Z,49.90
2019-02-06T19:26:40.707Z,65.33
2019-02-06T19:31:42.345Z,75.63
2019-02-06T19:36:43.641Z,62.03
2019-02-06T19:41:45.295Z,85.60
2019-02-06T19:46:46.562Z,96.67
2019-02-06T19:51:47.853Z,61.90
2019-02-06T19:56:49.141Z,57.37
2019-02-06T20:01:50.462Z,55.33
2019-02-06T20:06:54.144Z,54.00
2019-02-06T20:11:55.054Z,58.53
2019-02-06T20:16:56.387Z,60.07
2019-02-06T20:21:58.208Z,55.07
2019-02-06T20:26:59.651Z,62.43
2019-02-06T20:32:00.900Z,66.00
2019-02-06T20:37:02.481Z,57.33
2019-02-06T20:42:03.758Z,64.90
2019-02-06T20:47:05.029Z,49.03
2019-02-06T20:52:06.612Z,52.10
2019-02-06T20:57:13.593Z,51.87
2019-02-06T21:02:11.018Z,51.10
2019-02-06T21:07:13.488Z,49.97
2019-02-06T21:12:14.804Z,53.87
2019-02-06T21:17:16.081Z,57.23
2019-02-06T21:22:17.385Z,60.37
2019-02-06T21:27:19.202Z,63.50
2019-02-06T21:32:20.441Z,60.93
2019-02-06T21:37:21.731Z,54.23
2019-02-06T21:42:23.025Z,53.97
2019-02-06T21:47:25.060Z,54.57
2019-02-06T21:52:26.688Z,61.87
2019-02-06T21:57:27.994Z,65.53
2019-02-06T22:02:29.633Z,63.02
2019-02-06T22:07:30.930Z,60.80
2019-02-06T22:12:32.217Z,61.10
2019-02-06T22:17:33.496Z,53.13
2019-02-06T22:22:34.797Z,47.90
2019-02-06T22:27:36.372Z,55.43
2019-02-06T22:32:37.653Z,60.13
2019-02-06T22:37:39.128Z,47.23
2019-02-06T22:42:43.063Z,46.77
2019-02-06T22:47:43.482Z,40.57
2019-02-06T22:52:44.762Z,51.90
2019-02-06T22:57:46.389Z,58.63
2019-02-06T23:02:50.867Z,59.33
2019-02-06T23:07:52.149Z,62.30
2019-02-06T23:12:53.436Z,47.00
2019-02-06T23:17:54.698Z,46.53
2019-02-06T23:22:55.968Z,38.83
2019-02-06T23:27:57.248Z,42.33
2019-02-06T23:32:59.226Z,50.27
2019-02-06T23:38:00.505Z,54.77
2019-02-06T23:43:01.781Z,51.43
2019-02-06T23:48:03.056Z,45.30
2019-02-06T23:53:04.441Z,49.77
2019-02-06T23:58:05.723Z,49.27
